Time;durP1;ratioP1;P1;durP2;ratioP2;P2;SDS_P1;SDS_P2;PMS_P1;PMS_P2;Temp;Humidity;BMP_temperature;BMP_pressure;BME280_temperature;BME280_humidity;BME280_pressure;Samples;Min_cycle;Max_cycle;Signal;HPM_P1;HPM_P2
2023/09/04 00:00:58;;;;;;;6.63;1.50;;;18.30;67.60;;;;;;5071043;28;20292;-68
2023/09/04 00:03:28;;;;;;;7.13;1.37;;;18.60;66.00;;;;;;5068833;28;20238;-67
2023/09/04 00:05:56;;;;;;;5.50;1.97;;;18.80;64.50;;;;;;5072695;28;20725;-66
2023/09/04 00:08:24;;;;;;;5.50;1.47;;;19.00;64.40;;;;;;5072435;28;20520;-67
2023/09/04 00:10:52;;;;;;;10.53;1.40;;;18.90;64.20;;;;;;5072309;28;20191;-68
2023/09/04 00:13:19;;;;;;;5.77;1.60;;;19.10;63.90;;;;;;5068718;28;20584;-67
2023/09/04 00:15:46;;;;;;;8.37;1.63;;;19.20;63.00;;;;;;5067224;28;20213;-68
2023/09/04 00:18:14;;;;;;;3.80;1.50;;;19.30;63.00;;;;;;5063546;28;20187;-67
2023/09/04 00:20:41;;;;;;;7.43;1.60;;;19.30;62.40;;;;;;5068900;28;20209;-66
2023/09/04 00:23:08;;;;;;;5.83;1.57;;;19.30;61.90;;;;;;5071418;28;20302;-67
2023/09/04 00:25:36;;;;;;;9.10;1.70;;;19.20;62.30;;;;;;5069196;28;20187;-67
2023/09/04 00:28:03;;;;;;;10.37;1.53;;;19.30;62.20;;;;;;5071422;28;20587;-66
2023/09/04 00:30:31;;;;;;;5.10;1.60;;;19.30;62.30;;;;;;5070984;28;20237;-67
2023/09/04 00:32:58;;;;;;;3.53;1.27;;;19.50;62.50;;;;;;5076203;28;20544;-67
2023/09/04 00:35:26;;;;;;;9.00;1.83;;;19.50;61.80;;;;;;5071927;28;20187;-70
2023/09/04 00:37:54;;;;;;;7.63;2.00;;;19.60;61.90;;;;;;5072878;28;20186;-67
2023/09/04 00:40:21;;;;;;;5.40;1.50;;;19.80;62.00;;;;;;5072261;28;20227;-72
2023/09/04 00:42:49;;;;;;;6.30;1.93;;;19.80;61.60;;;;;;5068163;28;20218;-66
2023/09/04 00:45:16;;;;;;;4.20;1.47;;;19.80;61.50;;;;;;5070390;28;20644;-66
2023/09/04 00:47:45;;;;;;;7.00;1.73;;;19.80;61.50;;;;;;5068789;28;20218;-66
2023/09/04 00:50:18;;;;;;;2.50;1.33;;;19.80;60.90;;;;;;5069122;28;20681;-68
2023/09/04 00:52:46;;;;;;;8.13;1.40;;;19.90;61.40;;;;;;5070580;28;20257;-68
2023/09/04 00:55:13;;;;;;;6.77;1.57;;;20.00;61.40;;;;;;5071785;28;20195;-67
2023/09/04 00:57:43;;;;;;;6.67;1.53;;;20.00;61.00;;;;;;5068792;28;20186;-72
2023/09/04 01:00:13;;;;;;;2.97;1.33;;;19.80;60.60;;;;;;5071181;28;20191;-74
2023/09/04 01:02:43;;;;;;;9.23;1.67;;;20.00;60.50;;;;;;5071468;28;20241;-67
2023/09/04 01:05:11;;;;;;;7.03;1.77;;;20.10;60.60;;;;;;5071191;28;20236;-70
2023/09/04 01:07:40;;;;;;;10.27;2.73;;;20.10;61.50;;;;;;5071480;28;20194;-68
2023/09/04 01:10:10;;;;;;;5.13;2.90;;;20.30;59.70;;;;;;5068675;28;20311;-71
2023/09/04 01:12:50;;;;;;;7.33;1.53;;;20.20;60.30;;;;;;5071610;28;20793;-71
2023/09/04 01:15:18;;;;;;;4.00;1.53;;;20.10;60.10;;;;;;5071928;28;20190;-67
2023/09/04 01:17:46;;;;;;;7.40;1.57;;;19.90;60.30;;;;;;5071471;28;20187;-72
2023/09/04 01:20:24;;;;;;;8.17;1.73;;;20.00;60.80;;;;;;5070372;28;20183;-71
2023/09/04 01:22:52;;;;;;;8.60;2.27;;;20.20;60.30;;;;;;5071911;28;20642;-73
2023/09/04 01:25:20;;;;;;;5.97;1.60;;;20.50;61.40;;;;;;5069679;28;20313;-74
2023/09/04 01:28:13;;;;;;;7.17;1.93;;;20.80;60.20;;;;;;5070676;28;20183;-71
2023/09/04 01:31:12;;;;;;;5.93;1.57;;;20.50;60.30;;;;;;5070035;28;20187;-70
2023/09/04 01:33:50;;;;;;;7.80;1.67;;;20.50;61.20;;;;;;5071327;28;20184;-72
2023/09/04 01:36:19;;;;;;;8.27;1.40;;;20.00;62.90;;;;;;5071626;28;20167;-68
2023/09/04 01:38:46;;;;;;;4.10;1.33;;;20.30;62.50;;;;;;5070958;28;21512;-72
2023/09/04 01:41:14;;;;;;;7.07;1.90;;;20.50;61.30;;;;;;5071030;28;20302;-75
2023/09/04 01:43:41;;;;;;;6.67;2.03;;;20.60;60.40;;;;;;5067420;28;20635;-71
2023/09/04 01:46:09;;;;;;;8.43;2.27;;;20.40;61.60;;;;;;5070223;28;20182;-73
2023/09/04 01:48:36;;;;;;;7.53;1.70;;;20.80;61.20;;;;;;5071595;28;20232;-74
2023/09/04 01:51:03;;;;;;;6.17;1.50;;;20.80;61.40;;;;;;5071593;28;20172;-75
2023/09/04 01:53:32;;;;;;;4.57;1.93;;;20.80;60.70;;;;;;5071002;28;20183;-73
2023/09/04 01:56:00;;;;;;;4.67;1.73;;;20.80;61.40;;;;;;5071643;28;20209;-73
2023/09/04 01:58:28;;;;;;;7.70;1.93;;;20.80;61.70;;;;;;5068628;28;20186;-70
2023/09/04 02:00:56;;;;;;;7.27;2.03;;;20.80;61.90;;;;;;5069841;28;20171;-76
2023/09/04 02:03:23;;;;;;;6.43;1.47;;;20.80;60.90;;;;;;5068695;28;20214;-68
2023/09/04 02:05:50;;;;;;;5.47;1.57;;;21.00;61.10;;;;;;5070602;28;20172;-73
2023/09/04 02:08:19;;;;;;;6.37;1.60;;;21.00;60.10;;;;;;5071262;28;20237;-67
2023/09/04 02:10:50;;;;;;;4.20;1.37;;;21.20;60.50;;;;;;5071622;28;20199;-68
2023/09/04 02:13:17;;;;;;;7.43;1.70;;;21.40;59.30;;;;;;5071645;28;20701;-68
2023/09/04 02:15:45;;;;;;;7.10;1.50;;;21.50;59.10;;;;;;5070331;28;20171;-70
2023/09/04 02:18:12;;;;;;;9.10;1.80;;;21.10;60.10;;;;;;5071487;28;20191;-75
2023/09/04 02:20:39;;;;;;;5.73;1.57;;;21.00;60.80;;;;;;5071045;28;20221;-71
2023/09/04 02:23:07;;;;;;;6.63;1.50;;;21.30;60.10;;;;;;5067058;28;20218;-71
2023/09/04 02:25:35;;;;;;;7.10;1.80;;;21.20;60.30;;;;;;5070652;28;20245;-71
2023/09/04 02:28:02;;;;;;;7.07;1.40;;;21.20;60.50;;;;;;5071324;28;20565;-73
2023/09/04 02:30:30;;;;;;;6.93;1.87;;;21.30;60.10;;;;;;5070577;28;20657;-71
2023/09/04 02:32:58;;;;;;;5.67;1.67;;;21.50;60.00;;;;;;5070593;28;20623;-73
2023/09/04 02:35:26;;;;;;;6.97;2.20;;;21.90;59.30;;;;;;5070588;28;20547;-71
2023/09/04 02:37:53;;;;;;;7.23;1.97;;;21.90;58.60;;;;;;5071183;28;20187;-67
2023/09/04 02:40:21;;;;;;;6.10;2.10;;;22.10;58.20;;;;;;5070454;28;20777;-73
2023/09/04 02:42:48;;;;;;;11.83;2.17;;;22.00;58.90;;;;;;5071193;28;20204;-68
2023/09/04 02:45:15;;;;;;;9.43;2.13;;;22.00;59.60;;;;;;5074528;28;20174;-67
2023/09/04 02:47:43;;;;;;;7.73;1.83;;;21.80;58.90;;;;;;5073382;28;20175;-67
2023/09/04 02:50:12;;;;;;;8.20;1.63;;;21.80;60.10;;;;;;5071164;28;20265;-66
2023/09/04 02:52:39;;;;;;;5.93;1.63;;;21.90;59.70;;;;;;5071285;28;20209;-69
2023/09/04 02:55:08;;;;;;;6.53;1.77;;;21.80;59.40;;;;;;5069233;28;20179;-68
2023/09/04 02:57:35;;;;;;;7.00;1.63;;;22.10;58.90;;;;;;5072638;28;20265;-66
2023/09/04 03:00:06;;;;;;;8.50;1.73;;;22.20;58.60;;;;;;5070818;28;20653;-68
2023/09/04 03:02:36;;;;;;;8.43;1.83;;;22.10;58.10;;;;;;5071692;28;20215;-70
2023/09/04 03:05:04;;;;;;;6.23;1.93;;;22.00;58.10;;;;;;5072837;28;20672;-67
2023/09/04 03:07:31;;;;;;;5.80;2.20;;;22.10;58.00;;;;;;5072313;28;20265;-66
2023/09/04 03:10:00;;;;;;;4.40;1.33;;;22.00;58.50;;;;;;5073149;28;20184;-66
2023/09/04 03:12:32;;;;;;;5.93;1.97;;;22.40;57.70;;;;;;5071884;28;20183;-66
2023/09/04 03:15:04;;;;;;;6.30;1.70;;;22.50;57.40;;;;;;5070695;28;20642;-68
2023/09/04 03:17:33;;;;;;;6.00;1.93;;;22.30;59.00;;;;;;5071194;28;20203;-66
2023/09/04 03:20:04;;;;;;;6.03;1.53;;;22.60;57.20;;;;;;5071467;28;20180;-66
2023/09/04 03:22:31;;;;;;;6.57;1.90;;;22.20;58.00;;;;;;5070989;28;20207;-68
2023/09/04 03:24:59;;;;;;;5.93;2.00;;;22.30;57.60;;;;;;5072301;28;20187;-68
2023/09/04 03:27:27;;;;;;;10.37;2.30;;;22.40;57.80;;;;;;5071537;28;21556;-67
2023/09/04 03:29:55;;;;;;;7.70;2.00;;;22.60;57.30;;;;;;5072844;28;20541;-67
2023/09/04 03:32:22;;;;;;;6.80;1.67;;;22.30;58.70;;;;;;5071398;28;20581;-68
2023/09/04 03:34:50;;;;;;;5.33;1.60;;;22.20;58.80;;;;;;5070562;28;20267;-66
2023/09/04 03:37:17;;;;;;;7.00;1.83;;;22.30;58.70;;;;;;5068802;28;20266;-66
2023/09/04 03:39:44;;;;;;;7.67;2.00;;;22.70;57.90;;;;;;5071349;28;20289;-68
2023/09/04 03:42:14;;;;;;;9.07;2.23;;;22.80;57.30;;;;;;5071714;28;20211;-66
2023/09/04 03:44:42;;;;;;;7.97;1.90;;;23.30;57.10;;;;;;5068693;28;20256;-68
2023/09/04 03:47:10;;;;;;;6.03;1.73;;;23.50;55.80;;;;;;5071811;28;20191;-68
2023/09/04 03:49:38;;;;;;;7.73;1.70;;;23.60;54.90;;;;;;5071065;28;20187;-66
2023/09/04 03:52:05;;;;;;;8.90;1.93;;;23.30;55.20;;;;;;5071545;28;20691;-66
2023/09/04 03:54:33;;;;;;;4.97;1.67;;;22.30;57.60;;;;;;5070530;28;20297;-72
2023/09/04 03:57:00;;;;;;;7.40;1.97;;;22.00;59.00;;;;;;5066361;28;20175;-68
2023/09/04 03:59:28;;;;;;;4.17;1.90;;;22.00;59.30;;;;;;5071090;28;20184;-70
2023/09/04 04:01:55;;;;;;;7.10;1.83;;;22.40;58.10;;;;;;5070601;28;20262;-68
2023/09/04 04:04:22;;;;;;;10.30;2.43;;;22.30;59.20;;;;;;5069243;28;20207;-66
2023/09/04 04:06:49;;;;;;;6.57;2.23;;;22.50;58.10;;;;;;5069688;28;20171;-67
2023/09/04 04:09:21;;;;;;;4.93;1.60;;;22.80;56.70;;;;;;5068438;28;20542;-66
2023/09/04 04:11:48;;;;;;;9.03;2.07;;;22.60;58.10;;;;;;5069526;28;20186;-66
2023/09/04 04:14:15;;;;;;;7.63;1.80;;;23.20;56.20;;;;;;5070613;28;20238;-66
2023/09/04 04:16:43;;;;;;;6.70;1.90;;;22.80;56.60;;;;;;5069697;28;20179;-66
2023/09/04 04:19:10;;;;;;;10.17;1.90;;;22.60;58.50;;;;;;5070307;28;20569;-66
2023/09/04 04:21:38;;;;;;;8.00;1.60;;;22.90;57.10;;;;;;5071375;28;20188;-67
2023/09/04 04:24:05;;;;;;;8.70;2.00;;;23.10;57.40;;;;;;5072155;28;20219;-66
2023/09/04 04:26:32;;;;;;;11.07;2.23;;;23.00;56.50;;;;;;5072292;28;20192;-66
2023/09/04 04:29:00;;;;;;;10.73;1.90;;;22.90;57.40;;;;;;5071597;28;20179;-67
2023/09/04 04:31:27;;;;;;;7.10;2.30;;;22.30;58.40;;;;;;5072200;28;20179;-68
2023/09/04 04:33:54;;;;;;;7.73;1.70;;;22.30;59.70;;;;;;5070842;28;20190;-66
2023/09/04 04:36:22;;;;;;;8.90;1.70;;;22.80;58.20;;;;;;5070812;28;20183;-66
2023/09/04 04:38:49;;;;;;;9.23;2.67;;;23.00;57.70;;;;;;5072673;28;20183;-66
2023/09/04 04:41:16;;;;;;;8.67;2.20;;;22.90;58.00;;;;;;5072146;28;20688;-66
2023/09/04 04:43:43;;;;;;;8.87;1.93;;;22.90;58.50;;;;;;5066799;28;20219;-67
2023/09/04 04:46:12;;;;;;;9.63;1.97;;;22.90;58.80;;;;;;5072546;28;20653;-67
2023/09/04 04:48:40;;;;;;;8.23;2.07;;;23.20;57.70;;;;;;5070310;28;20185;-66
2023/09/04 04:51:07;;;;;;;6.77;1.97;;;22.80;59.50;;;;;;5071805;28;20226;-67
2023/09/04 04:53:36;;;;;;;8.20;2.23;;;22.90;59.80;;;;;;5068295;28;20692;-67
2023/09/04 04:56:03;;;;;;;10.53;2.73;;;23.20;58.30;;;;;;5070521;28;20187;-69
2023/09/04 04:58:30;;;;;;;3.13;2.10;;;23.00;58.10;;;;;;5070978;28;20191;-74
2023/09/04 05:00:58;;;;;;;6.00;2.10;;;23.20;57.30;;;;;;5070289;28;20198;-67
2023/09/04 05:03:25;;;;;;;9.70;1.93;;;22.80;58.60;;;;;;5067340;28;20237;-73
2023/09/04 05:05:52;;;;;;;10.10;2.20;;;22.80;58.80;;;;;;5070579;28;20183;-68
2023/09/04 05:08:20;;;;;;;8.90;2.33;;;22.80;58.00;;;;;;5071081;28;20187;-67
2023/09/04 05:10:56;;;;;;;8.33;2.13;;;22.50;59.10;;;;;;5066807;28;20199;-75
2023/09/04 05:13:24;;;;;;;7.47;2.20;;;22.80;58.30;;;;;;5070839;28;20206;-66
2023/09/04 05:15:51;;;;;;;7.17;1.87;;;22.90;58.50;;;;;;5068070;28;20224;-66
2023/09/04 05:18:18;;;;;;;15.60;2.10;;;23.20;57.70;;;;;;5070168;28;20657;-67
2023/09/04 05:20:46;;;;;;;11.87;2.00;;;22.60;59.50;;;;;;5070760;28;20751;-66
2023/09/04 05:23:13;;;;;;;9.37;2.60;;;22.70;59.80;;;;;;5070236;28;20240;-66
2023/09/04 05:25:48;;;;;;;5.57;2.13;;;22.90;58.50;;;;;;5066171;28;20183;-66
2023/09/04 05:28:16;;;;;;;8.07;1.97;;;23.00;59.70;;;;;;5070852;28;20185;-66
2023/09/04 05:30:43;;;;;;;7.77;2.60;;;23.30;58.20;;;;;;5073358;28;20224;-68
2023/09/04 05:33:10;;;;;;;7.63;2.10;;;22.80;60.10;;;;;;5070554;28;20190;-67
2023/09/04 05:35:38;;;;;;;4.33;1.63;;;23.20;58.30;;;;;;5064183;28;20719;-66
2023/09/04 05:38:05;;;;;;;6.93;2.20;;;23.00;59.20;;;;;;5070690;28;20190;-67
2023/09/04 05:40:33;;;;;;;5.87;2.00;;;23.00;59.20;;;;;;5070038;28;20251;-67
2023/09/04 05:43:00;;;;;;;10.77;2.03;;;23.00;58.20;;;;;;5071163;28;20211;-67
2023/09/04 05:45:28;;;;;;;4.57;2.00;;;22.80;59.80;;;;;;5068642;28;20314;-66
2023/09/04 05:47:55;;;;;;;9.43;2.30;;;23.20;58.30;;;;;;5069796;28;20187;-65
2023/09/04 05:50:22;;;;;;;8.97;2.30;;;23.10;59.40;;;;;;5068988;28;20180;-67
2023/09/04 05:52:50;;;;;;;10.80;2.30;;;22.50;60.20;;;;;;5065594;28;20179;-67
2023/09/04 05:55:17;;;;;;;9.17;2.00;;;22.80;60.00;;;;;;5075621;28;20193;-68
2023/09/04 05:57:44;;;;;;;11.30;2.30;;;22.80;59.60;;;;;;5069344;28;20175;-66
2023/09/04 06:00:12;;;;;;;6.90;2.30;;;22.60;60.50;;;;;;5070684;28;20649;-67
2023/09/04 06:02:39;;;;;;;6.23;1.97;;;22.60;61.30;;;;;;5070044;28;20415;-66
2023/09/04 06:05:07;;;;;;;5.57;1.80;;;23.20;58.90;;;;;;5070440;28;20205;-66
2023/09/04 06:07:35;;;;;;;7.10;2.00;;;23.30;58.60;;;;;;5068511;28;20183;-67
2023/09/04 06:10:03;;;;;;;6.83;2.10;;;22.60;61.10;;;;;;5063814;28;20436;-65
2023/09/04 06:12:31;;;;;;;10.30;2.13;;;22.20;62.10;;;;;;5070334;28;20175;-65
2023/09/04 06:14:58;;;;;;;8.47;2.13;;;21.90;63.20;;;;;;5069657;28;20717;-65
2023/09/04 06:17:25;;;;;;;6.90;2.10;;;21.80;63.90;;;;;;5069527;28;20187;-69
2023/09/04 06:19:53;;;;;;;10.20;2.73;;;22.20;63.30;;;;;;5073584;28;20183;-66
2023/09/04 06:22:20;;;;;;;9.10;1.93;;;22.30;62.30;;;;;;5068282;28;20228;-68
2023/09/04 06:24:48;;;;;;;11.37;2.40;;;22.10;62.40;;;;;;5069679;28;20179;-66
2023/09/04 06:27:16;;;;;;;8.97;2.40;;;21.90;64.10;;;;;;5070001;28;20183;-66
2023/09/04 06:29:43;;;;;;;11.83;2.50;;;22.30;62.60;;;;;;5074591;28;20549;-66
2023/09/04 06:32:14;;;;;;;5.90;1.90;;;22.30;62.50;;;;;;5072768;28;20198;-71
2023/09/04 06:34:42;;;;;;;10.03;2.07;;;21.80;63.80;;;;;;5069851;28;20291;-70
2023/09/04 06:37:09;;;;;;;12.23;2.20;;;21.90;64.70;;;;;;5071822;28;20175;-68
2023/09/04 06:39:37;;;;;;;9.40;2.33;;;21.80;65.40;;;;;;5070096;28;20245;-68
2023/09/04 06:42:04;;;;;;;10.00;1.97;;;21.50;66.40;;;;;;5069505;28;20581;-72
2023/09/04 06:44:32;;;;;;;9.80;2.20;;;21.70;65.30;;;;;;5072965;28;20195;-74
2023/09/04 06:46:59;;;;;;;12.17;2.80;;;21.20;66.70;;;;;;5070865;28;20187;-77
2023/09/04 06:49:27;;;;;;;10.27;1.90;;;21.20;67.00;;;;;;5073721;28;20194;-72
2023/09/04 06:51:54;;;;;;;9.57;1.93;;;21.10;67.80;;;;;;5073660;28;20539;-73
2023/09/04 06:54:21;;;;;;;9.47;2.20;;;21.20;67.70;;;;;;5074402;28;20202;-73
2023/09/04 06:56:49;;;;;;;9.63;2.00;;;20.40;70.30;;;;;;5072956;28;20179;-73
2023/09/04 06:59:16;;;;;;;10.00;2.67;;;20.30;70.80;;;;;;5074455;28;20638;-69
2023/09/04 07:01:44;;;;;;;12.37;2.50;;;20.40;70.20;;;;;;5071066;28;20214;-73
2023/09/04 07:04:11;;;;;;;14.97;2.50;;;20.00;71.80;;;;;;5070117;28;20691;-74
2023/09/04 07:06:38;;;;;;;8.40;2.20;;;19.60;73.50;;;;;;5072489;28;20199;-73
2023/09/04 07:09:06;;;;;;;10.00;2.63;;;19.30;74.90;;;;;;5073882;28;20215;-69
2023/09/04 07:11:33;;;;;;;10.40;2.57;;;19.10;75.90;;;;;;5072581;28;20179;-73
2023/09/04 07:14:00;;;;;;;8.47;2.10;;;18.90;76.20;;;;;;5073011;28;20740;-74
2023/09/04 07:16:28;;;;;;;13.57;2.77;;;18.80;76.70;;;;;;5073354;28;20214;-72
2023/09/04 07:18:55;;;;;;;9.43;2.97;;;18.80;77.20;;;;;;5072836;28;20201;-72
2023/09/04 07:21:22;;;;;;;13.20;2.90;;;18.80;77.50;;;;;;5073496;28;20179;-70
2023/09/04 07:23:49;;;;;;;8.93;2.43;;;18.70;78.30;;;;;;5072718;28;20553;-76
2023/09/04 07:26:17;;;;;;;9.93;2.47;;;18.60;79.00;;;;;;5071040;28;20231;-72
2023/09/04 07:28:44;;;;;;;12.13;2.73;;;18.50;79.60;;;;;;5072759;28;20186;-70
2023/09/04 07:31:18;;;;;;;11.23;2.87;;;18.40;80.10;;;;;;5073507;28;20179;-67
2023/09/04 07:33:48;;;;;;;14.53;2.33;;;18.30;80.80;;;;;;5072545;28;20186;-74
2023/09/04 07:36:15;;;;;;;14.87;2.47;;;18.30;81.10;;;;;;5070611;28;20175;-68
2023/09/04 07:38:44;;;;;;;15.70;2.93;;;18.30;81.60;;;;;;5073926;28;20704;-66
2023/09/04 07:41:11;;;;;;;17.90;4.10;;;18.20;82.10;;;;;;5073608;28;20230;-70
2023/09/04 07:43:39;;;;;;;14.77;3.00;;;18.20;82.60;;;;;;5073900;28;20252;-68
2023/09/04 07:46:06;;;;;;;26.40;4.43;;;18.20;82.90;;;;;;5072416;28;20208;-72
2023/09/04 07:48:37;;;;;;;13.07;5.20;;;18.20;83.10;;;;;;5071732;28;20660;-70
2023/09/04 07:51:06;;;;;;;12.63;3.73;;;18.10;83.40;;;;;;5071268;28;20214;-70
2023/09/04 07:53:33;;;;;;;19.37;4.33;;;18.00;83.80;;;;;;5067268;28;20213;-67
2023/09/04 07:56:01;;;;;;;17.10;5.93;;;18.00;84.30;;;;;;5067986;28;20536;-71
2023/09/04 07:58:28;;;;;;;23.37;6.00;;;18.00;84.50;;;;;;5070997;28;20257;-72
2023/09/04 08:00:55;;;;;;;22.30;8.10;;;18.00;84.70;;;;;;5073091;28;20574;-72
2023/09/04 08:03:23;;;;;;;25.63;7.77;;;17.90;84.90;;;;;;5072179;28;20214;-72
2023/09/04 08:05:50;;;;;;;19.03;5.07;;;17.90;85.20;;;;;;5072654;28;20714;-72
2023/09/04 08:08:17;;;;;;;17.27;5.73;;;17.90;85.50;;;;;;5073881;28;20179;-67
2023/09/04 08:10:49;;;;;;;18.77;5.47;;;17.80;85.80;;;;;;5072784;28;20196;-72
2023/09/04 08:13:18;;;;;;;14.50;4.17;;;17.90;86.00;;;;;;5072808;28;20187;-71
2023/09/04 08:15:45;;;;;;;20.23;4.47;;;17.90;86.30;;;;;;5069782;28;20188;-70
2023/09/04 08:18:13;;;;;;;19.17;5.20;;;17.90;86.70;;;;;;5076593;28;20190;-68
2023/09/04 08:20:40;;;;;;;14.23;5.00;;;17.80;87.00;;;;;;5074424;28;20260;-71
2023/09/04 08:23:09;;;;;;;27.77;5.10;;;17.80;87.20;;;;;;5072562;28;20306;-70
2023/09/04 08:25:37;;;;;;;19.03;5.10;;;17.80;87.30;;;;;;5071319;28;20203;-72
2023/09/04 08:28:05;;;;;;;19.50;5.47;;;17.80;87.40;;;;;;5073606;28;20193;-71
2023/09/04 08:30:34;;;;;;;16.70;5.07;;;17.80;87.40;;;;;;5073220;28;20183;-70
2023/09/04 08:33:01;;;;;;;21.77;5.33;;;17.80;87.50;;;;;;5073223;28;20706;-72
2023/09/04 08:35:29;;;;;;;19.80;5.50;;;17.80;87.50;;;;;;5069257;28;20245;-72
2023/09/04 08:37:57;;;;;;;19.73;5.50;;;17.80;87.60;;;;;;5069660;28;20273;-71
2023/09/04 08:40:25;;;;;;;22.43;6.47;;;17.80;87.80;;;;;;5070728;28;20226;-70
2023/09/04 08:42:55;;;;;;;17.97;5.50;;;17.80;87.80;;;;;;5073130;28;20215;-71
2023/09/04 08:45:23;;;;;;;26.87;8.67;;;17.80;88.00;;;;;;5070332;28;20183;-69
2023/09/04 08:47:53;;;;;;;22.70;5.97;;;17.90;88.00;;;;;;5070132;28;20652;-69
2023/09/04 08:50:21;;;;;;;15.07;5.83;;;17.80;88.00;;;;;;5071208;28;20187;-69
2023/09/04 08:52:50;;;;;;;19.03;5.90;;;17.80;88.20;;;;;;5073002;28;20186;-73
2023/09/04 08:55:20;;;;;;;19.00;6.37;;;17.80;88.30;;;;;;5069362;28;20202;-72
2023/09/04 08:57:47;;;;;;;16.70;5.87;;;17.90;88.20;;;;;;5066881;28;20550;-70
2023/09/04 09:00:16;;;;;;;18.80;7.33;;;17.90;88.20;;;;;;5071546;28;20541;-72
2023/09/04 09:02:45;;;;;;;24.47;7.57;;;17.90;88.30;;;;;;5071512;28;20294;-71
2023/09/04 09:05:16;;;;;;;20.03;7.87;;;17.90;88.20;;;;;;5063892;28;20198;-72
2023/09/04 09:07:47;;;;;;;18.63;9.23;;;17.90;88.20;;;;;;5067270;28;20187;-72
2023/09/04 09:10:19;;;;;;;23.47;10.80;;;17.90;88.20;;;;;;5068676;28;20186;-70
2023/09/04 09:12:47;;;;;;;21.93;10.10;;;18.00;88.10;;;;;;5070582;28;20202;-68
2023/09/04 09:15:17;;;;;;;19.77;9.23;;;18.00;88.10;;;;;;5070020;28;20270;-67
2023/09/04 09:18:10;;;;;;;16.80;10.20;;;18.00;88.10;;;;;;5071446;28;20178;-68
2023/09/04 09:20:42;;;;;;;17.57;7.93;;;18.00;88.20;;;;;;5072653;28;20213;-67
2023/09/04 09:23:09;;;;;;;28.47;8.83;;;17.90;88.20;;;;;;5071854;28;20202;-66
2023/09/04 09:25:38;;;;;;;27.83;8.90;;;18.00;88.30;;;;;;5069944;28;20191;-67
2023/09/04 09:28:09;;;;;;;26.17;9.90;;;18.00;88.30;;;;;;5069630;28;20186;-68
2023/09/04 09:30:39;;;;;;;21.07;9.03;;;17.90;88.40;;;;;;5071316;28;20261;-66
2023/09/04 09:33:17;;;;;;;21.83;9.77;;;18.00;88.50;;;;;;5072264;28;20179;-67
2023/09/04 09:35:46;;;;;;;22.63;9.37;;;17.90;88.50;;;;;;5070298;28;20567;-67
2023/09/04 09:38:13;;;;;;;19.77;9.20;;;17.90;88.50;;;;;;5072023;28;20183;-68
2023/09/04 09:40:40;;;;;;;24.47;10.10;;;17.80;88.60;;;;;;5070781;28;20309;-67
2023/09/04 09:43:08;;;;;;;26.53;8.90;;;17.80;88.70;;;;;;5070747;28;20219;-67
2023/09/04 09:45:36;;;;;;;20.57;9.67;;;17.80;88.80;;;;;;5070113;28;20206;-67
2023/09/04 09:48:08;;;;;;;28.17;10.43;;;17.80;89.00;;;;;;5071908;28;20229;-68
2023/09/04 09:50:40;;;;;;;27.67;11.13;;;17.80;89.00;;;;;;5071011;28;20244;-67
2023/09/04 09:53:08;;;;;;;18.93;11.23;;;17.80;89.20;;;;;;5074533;28;20186;-67
2023/09/04 09:55:36;;;;;;;27.50;10.33;;;17.80;89.40;;;;;;5074037;28;20186;-67
2023/09/04 09:58:04;;;;;;;25.13;11.13;;;17.70;89.50;;;;;;5075429;28;20183;-67
2023/09/04 10:00:31;;;;;;;27.17;12.50;;;17.70;89.60;;;;;;5074962;28;20195;-67
2023/09/04 10:02:59;;;;;;;29.70;14.63;;;17.70;89.80;;;;;;5072582;28;20194;-66
2023/09/04 10:05:28;;;;;;;27.80;15.43;;;17.70;90.00;;;;;;5068790;28;20275;-69
2023/09/04 10:08:03;;;;;;;27.63;19.07;;;17.70;90.20;;;;;;5075186;28;20175;-70
2023/09/04 10:10:35;;;;;;;26.10;17.43;;;17.70;90.40;;;;;;5074856;28;20185;-69
2023/09/04 10:13:19;;;;;;;30.47;15.20;;;17.70;90.40;;;;;;5076109;28;20831;-70
2023/09/04 10:15:49;;;;;;;33.93;17.07;;;17.70;90.50;;;;;;5067293;28;20653;-69
2023/09/04 10:18:26;;;;;;;34.03;16.60;;;17.70;90.60;;;;;;5073695;28;21246;-70
2023/09/04 10:20:56;;;;;;;34.30;19.10;;;17.60;90.70;;;;;;5072916;28;20602;-68
2023/09/04 10:23:27;;;;;;;31.67;21.13;;;17.60;90.90;;;;;;5073551;28;20677;-67
2023/09/04 10:26:07;;;;;;;39.40;20.23;;;17.70;91.20;;;;;;5072318;28;20543;-72
2023/09/04 10:28:40;;;;;;;34.03;22.07;;;17.60;91.20;;;;;;5073960;28;20183;-67
2023/09/04 10:31:08;;;;;;;32.13;23.93;;;17.70;91.50;;;;;;5074456;28;20186;-68
2023/09/04 10:33:39;;;;;;;43.57;28.80;;;17.70;91.60;;;;;;5072861;28;20809;-67
2023/09/04 10:36:08;;;;;;;36.07;27.87;;;17.70;91.60;;;;;;5075803;28;20182;-68
2023/09/04 10:38:36;;;;;;;37.70;29.23;;;17.70;91.60;;;;;;5071494;28;20209;-67
2023/09/04 10:41:07;;;;;;;44.13;28.90;;;17.80;91.70;;;;;;5069894;28;20246;-67
2023/09/04 10:43:42;;;;;;;44.27;32.07;;;17.80;91.70;;;;;;5070359;28;20225;-68
2023/09/04 10:46:12;;;;;;;44.10;33.70;;;17.80;91.80;;;;;;5072790;28;20240;-69
2023/09/04 10:48:45;;;;;;;48.77;34.30;;;17.80;91.80;;;;;;5071998;28;20231;-70
2023/09/04 10:51:34;;;;;;;39.93;35.87;;;17.80;91.80;;;;;;5070998;28;20188;-67
2023/09/04 10:54:22;;;;;;;47.17;35.30;;;17.80;91.80;;;;;;5073455;28;20186;-66
2023/09/04 10:57:01;;;;;;;40.67;36.73;;;17.70;91.90;;;;;;5073267;28;20270;-69
2023/09/04 10:59:29;;;;;;;43.07;35.83;;;17.70;91.90;;;;;;5073745;28;20189;-67
2023/09/04 11:02:31;;;;;;;48.47;38.57;;;17.70;92.10;;;;;;5072398;28;20198;-66
2023/09/04 11:05:00;;;;;;;44.90;40.27;;;17.70;92.10;;;;;;5067903;28;20187;-67
2023/09/04 11:07:36;;;;;;;51.53;39.03;;;17.60;92.20;;;;;;5072845;28;20194;-67
2023/09/04 11:10:34;;;;;;;56.43;43.27;;;17.60;92.20;;;;;;5072370;28;20346;-66
2023/09/04 11:13:01;;;;;;;52.53;44.27;;;17.60;92.30;;;;;;5072557;28;20310;-67
2023/09/04 11:15:29;;;;;;;55.63;45.33;;;17.60;92.30;;;;;;5075746;28;20186;-66
2023/09/04 11:17:56;;;;;;;55.20;46.30;;;17.60;92.30;;;;;;5071896;28;20236;-66
2023/09/04 11:20:26;;;;;;;56.17;50.53;;;17.60;92.30;;;;;;5067687;28;20286;-67
2023/09/04 11:22:56;;;;;;;57.87;51.80;;;17.50;92.40;;;;;;5075453;28;20222;-67
2023/09/04 11:25:24;;;;;;;58.83;53.47;;;17.50;92.40;;;;;;5072474;28;20551;-67
2023/09/04 11:27:54;;;;;;;61.97;55.83;;;17.50;92.50;;;;;;5075645;28;20210;-67
2023/09/04 11:30:22;;;;;;;64.13;58.03;;;17.50;92.60;;;;;;5070518;28;20269;-67
2023/09/04 11:32:50;;;;;;;59.27;52.90;;;17.50;92.60;;;;;;5073833;28;20655;-67
2023/09/04 11:35:18;;;;;;;68.57;61.63;;;17.40;92.60;;;;;;5071430;28;20241;-67
2023/09/04 11:37:45;;;;;;;66.97;60.73;;;17.40;92.60;;;;;;5065279;28;20629;-68
2023/09/04 11:40:13;;;;;;;70.53;63.40;;;17.30;92.60;;;;;;5073629;28;20248;-67
2023/09/04 11:42:40;;;;;;;73.77;67.00;;;17.30;92.70;;;;;;5072553;28;20199;-67
2023/09/04 11:45:08;;;;;;;73.03;66.50;;;17.40;92.80;;;;;;5070769;28;20620;-66
2023/09/04 11:47:36;;;;;;;77.03;70.57;;;17.30;92.80;;;;;;5069443;28;20190;-67
2023/09/04 11:50:04;;;;;;;74.83;68.03;;;17.30;92.80;;;;;;5070349;28;20221;-69
2023/09/04 11:52:31;;;;;;;66.73;60.60;;;17.20;92.60;;;;;;5072320;28;20219;-67
2023/09/04 11:54:59;;;;;;;70.77;64.83;;;17.10;92.60;;;;;;5074093;28;20230;-69
2023/09/04 11:57:26;;;;;;;67.90;61.77;;;17.00;92.60;;;;;;5070299;28;20187;-67
2023/09/04 11:59:55;;;;;;;65.83;59.53;;;16.90;92.70;;;;;;5073437;28;20193;-68
2023/09/04 12:02:22;;;;;;;65.27;59.97;;;16.80;92.80;;;;;;5072019;28;20270;-71
2023/09/04 12:04:52;;;;;;;63.90;58.40;;;16.80;92.80;;;;;;5069239;28;20191;-70
2023/09/04 12:07:19;;;;;;;69.63;62.67;;;16.70;92.80;;;;;;5070110;28;20262;-68
2023/09/04 12:09:46;;;;;;;69.60;62.80;;;16.70;92.90;;;;;;5077166;28;20179;-68
2023/09/04 12:12:17;;;;;;;67.93;61.93;;;16.70;93.00;;;;;;5070823;28;20174;-67
2023/09/04 12:14:45;;;;;;;68.83;62.80;;;16.70;93.00;;;;;;5069352;28;20240;-66
2023/09/04 12:17:13;;;;;;;69.13;63.10;;;16.60;93.10;;;;;;5072195;28;20196;-67
2023/09/04 12:19:44;;;;;;;66.07;60.70;;;16.60;93.10;;;;;;5073254;28;20189;-69
2023/09/04 12:22:15;;;;;;;65.40;59.40;;;16.60;93.10;;;;;;5071114;28;20223;-68
2023/09/04 12:25:05;;;;;;;68.33;62.13;;;16.50;93.20;;;;;;5065893;28;20222;-70
2023/09/04 12:27:37;;;;;;;66.73;60.37;;;16.50;93.10;;;;;;5072655;28;20194;-68
2023/09/04 12:30:08;;;;;;;67.93;61.10;;;16.40;93.10;;;;;;5072389;28;20781;-69
2023/09/04 12:32:37;;;;;;;62.93;57.27;;;16.40;93.20;;;;;;5073626;28;20645;-68
2023/09/04 12:35:06;;;;;;;65.77;60.17;;;16.30;93.20;;;;;;5072998;28;20561;-67
2023/09/04 12:37:37;;;;;;;65.70;59.93;;;16.30;93.20;;;;;;5073013;28;20280;-67
2023/09/04 12:40:06;;;;;;;62.93;58.27;;;16.30;93.30;;;;;;5074346;28;20299;-67
2023/09/04 12:42:34;;;;;;;66.50;60.60;;;16.20;93.30;;;;;;5073445;28;20230;-68
2023/09/04 12:45:01;;;;;;;64.67;59.27;;;16.20;93.30;;;;;;5072973;28;20202;-68
2023/09/04 12:47:28;;;;;;;57.83;52.77;;;16.10;93.30;;;;;;5072750;28;20179;-69